sensor_id;sensor_type;location;lat;lon;timestamp;P1;durP1;ratioP1;P2;durP2;ratioP2
22983;SDS011;11658;48.908;9.140;2023-06-14T04:02:25;5.17;;;4.47;;
22983;SDS011;11658;48.908;9.140;2023-06-14T04:04:53;5.00;;;3.90;;
22983;SDS011;11658;48.908;9.140;2023-06-14T04:07:19;6.03;;;4.40;;
22983;SDS011;11658;48.908;9.140;2023-06-14T04:09:45;4.97;;;4.23;;
22983;SDS011;11658;48.908;9.140;2023-06-14T04:12:11;4.67;;;3.53;;
22983;SDS011;11658;48.908;9.140;2023-06-14T04:14:37;8.73;;;4.37;;
22983;SDS011;11658;48.908;9.140;2023-06-14T04:17:04;6.17;;;4.13;;
22983;SDS011;11658;48.908;9.140;2023-06-14T04:19:30;7.73;;;4.20;;
22983;SDS011;11658;48.908;9.140;2023-06-14T04:21:55;6.00;;;4.23;;
22983;SDS011;11658;48.908;9.140;2023-06-14T04:24:22;6.60;;;4.17;;
22983;SDS011;11658;48.908;9.140;2023-06-14T04:26:48;7.70;;;4.37;;
22983;SDS011;11658;48.908;9.140;2023-06-14T04:29:14;4.93;;;4.20;;
22983;SDS011;11658;48.908;9.140;2023-06-14T04:31:41;4.93;;;3.80;;
22983;SDS011;11658;48.908;9.140;2023-06-14T04:34:07;4.07;;;3.67;;
22983;SDS011;11658;48.908;9.140;2023-06-14T04:36:33;4.57;;;3.70;;
22983;SDS011;11658;48.908;9.140;2023-06-14T04:39:03;6.87;;;3.83;;
22983;SDS011;11658;48.908;9.140;2023-06-14T04:41:29;5.37;;;3.37;;
22983;SDS011;11658;48.908;9.140;2023-06-14T04:44:00;4.57;;;3.70;;
22983;SDS011;11658;48.908;9.140;2023-06-14T04:46:29;5.07;;;3.70;;
22983;SDS011;11658;48.908;9.140;2023-06-14T04:48:55;5.20;;;4.13;;
22983;SDS011;11658;48.908;9.140;2023-06-14T04:51:21;6.47;;;3.63;;
22983;SDS011;11658;48.908;9.140;2023-06-14T04:53:55;5.13;;;3.13;;
22983;SDS011;11658;48.908;9.140;2023-06-14T04:56:23;7.73;;;3.17;;
22983;SDS011;11658;48.908;9.140;2023-06-14T04:58:50;3.83;;;3.50;;
22983;SDS011;11658;48.908;9.140;2023-06-14T05:01:15;4.45;;;3.50;;
22983;SDS011;11658;48.908;9.140;2023-06-14T05:03:41;4.75;;;3.50;;
22983;SDS011;11658;48.908;9.140;2023-06-14T05:06:10;3.90;;;3.50;;
22983;SDS011;11658;48.908;9.140;2023-06-14T05:08:36;5.43;;;3.50;;
22983;SDS011;11658;48.908;9.140;2023-06-14T05:11:02;4.38;;;3.45;;
22983;SDS011;11658;48.908;9.140;2023-06-14T05:13:28;4.20;;;3.50;;
22983;SDS011;11658;48.908;9.140;2023-06-14T05:15:53;6.40;;;3.60;;
22983;SDS011;11658;48.908;9.140;2023-06-14T05:18:19;4.65;;;3.78;;
22983;SDS011;11658;48.908;9.140;2023-06-14T05:20:45;6.90;;;3.90;;
22983;SDS011;11658;48.908;9.140;2023-06-14T05:23:11;7.93;;;4.00;;
22983;SDS011;11658;48.908;9.140;2023-06-14T05:25:40;6.28;;;4.25;;
22983;SDS011;11658;48.908;9.140;2023-06-14T05:28:09;5.15;;;3.75;;
22983;SDS011;11658;48.908;9.140;2023-06-14T05:30:37;5.72;;;4.20;;
22983;SDS011;11658;48.908;9.140;2023-06-14T05:33:04;7.40;;;4.40;;
22983;SDS011;11658;48.908;9.140;2023-06-14T05:35:30;5.57;;;4.00;;
22983;SDS011;11658;48.908;9.140;2023-06-14T05:37:55;7.50;;;3.97;;
22983;SDS011;11658;48.908;9.140;2023-06-14T05:40:21;4.32;;;3.92;;
22983;SDS011;11658;48.908;9.140;2023-06-14T05:42:47;4.35;;;3.80;;
22983;SDS011;11658;48.908;9.140;2023-06-14T05:45:12;5.07;;;3.78;;
22983;SDS011;11658;48.908;9.140;2023-06-14T05:47:40;5.05;;;4.00;;
22983;SDS011;11658;48.908;9.140;2023-06-14T05:50:05;5.10;;;4.13;;
22983;SDS011;11658;48.908;9.140;2023-06-14T05:52:31;4.00;;;3.60;;
22983;SDS011;11658;48.908;9.140;2023-06-14T05:54:57;6.50;;;3.65;;
22983;SDS011;11658;48.908;9.140;2023-06-14T05:57:23;5.68;;;3.95;;
22983;SDS011;11658;48.908;9.140;2023-06-14T05:59:48;4.07;;;3.67;;
22983;SDS011;11658;48.908;9.140;2023-06-14T06:02:15;4.35;;;3.88;;
22983;SDS011;11658;48.908;9.140;2023-06-14T06:04:41;7.88;;;3.85;;
22983;SDS011;11658;48.908;9.140;2023-06-14T06:07:06;4.25;;;3.33;;
22983;SDS011;11658;48.908;9.140;2023-06-14T06:09:32;6.25;;;3.80;;
22983;SDS011;11658;48.908;9.140;2023-06-14T06:11:57;5.45;;;3.70;;
22983;SDS011;11658;48.908;9.140;2023-06-14T06:14:23;5.30;;;3.60;;
22983;SDS011;11658;48.908;9.140;2023-06-14T06:16:49;4.93;;;4.15;;
22983;SDS011;11658;48.908;9.140;2023-06-14T06:19:17;4.95;;;3.75;;
22983;SDS011;11658;48.908;9.140;2023-06-14T06:21:43;7.93;;;3.65;;
22983;SDS011;11658;48.908;9.140;2023-06-14T06:24:08;4.18;;;3.78;;
22983;SDS011;11658;48.908;9.140;2023-06-14T06:26:34;7.28;;;3.97;;
22983;SDS011;11658;48.908;9.140;2023-06-14T06:29:00;5.50;;;3.90;;
22983;SDS011;11658;48.908;9.140;2023-06-14T06:31:25;5.38;;;3.95;;
22983;SDS011;11658;48.908;9.140;2023-06-14T06:33:52;4.57;;;3.72;;
22983;SDS011;11658;48.908;9.140;2023-06-14T06:36:19;5.30;;;3.58;;
22983;SDS011;11658;48.908;9.140;2023-06-14T06:38:46;4.60;;;3.80;;
22983;SDS011;11658;48.908;9.140;2023-06-14T06:41:12;5.40;;;3.65;;
22983;SDS011;11658;48.908;9.140;2023-06-14T06:43:37;5.60;;;3.88;;
22983;SDS011;11658;48.908;9.140;2023-06-14T06:46:03;3.75;;;3.42;;
22983;SDS011;11658;48.908;9.140;2023-06-14T06:48:29;4.47;;;3.80;;
22983;SDS011;11658;48.908;9.140;2023-06-14T06:50:54;4.13;;;3.63;;
22983;SDS011;11658;48.908;9.140;2023-06-14T06:53:20;3.97;;;3.58;;
22983;SDS011;11658;48.908;9.140;2023-06-14T06:55:45;7.45;;;4.30;;
22983;SDS011;11658;48.908;9.140;2023-06-14T06:58:11;5.00;;;3.92;;
22983;SDS011;11658;48.908;9.140;2023-06-14T07:00:37;6.35;;;4.10;;
22983;SDS011;11658;48.908;9.140;2023-06-14T07:03:03;5.70;;;4.10;;
22983;SDS011;11658;48.908;9.140;2023-06-14T07:05:29;8.07;;;4.32;;
22983;SDS011;11658;48.908;9.140;2023-06-14T07:07:54;4.80;;;4.23;;
22983;SDS011;11658;48.908;9.140;2023-06-14T07:10:21;6.53;;;4.03;;
22983;SDS011;11658;48.908;9.140;2023-06-14T07:12:47;8.80;;;4.10;;
22983;SDS011;11658;48.908;9.140;2023-06-14T07:15:12;4.80;;;4.27;;
22983;SDS011;11658;48.908;9.140;2023-06-14T07:17:38;5.13;;;3.97;;
22983;SDS011;11658;48.908;9.140;2023-06-14T07:20:03;5.93;;;4.30;;
22983;SDS011;11658;48.908;9.140;2023-06-14T07:22:33;4.47;;;4.03;;
22983;SDS011;11658;48.908;9.140;2023-06-14T07:24:58;5.00;;;3.93;;
22983;SDS011;11658;48.908;9.140;2023-06-14T07:27:24;7.40;;;4.70;;
22983;SDS011;11658;48.908;9.140;2023-06-14T07:29:49;5.23;;;3.73;;
22983;SDS011;11658;48.908;9.140;2023-06-14T07:32:15;6.23;;;3.90;;
22983;SDS011;11658;48.908;9.140;2023-06-14T07:34:40;4.77;;;4.10;;
22983;SDS011;11658;48.908;9.140;2023-06-14T07:37:06;6.80;;;3.70;;
22983;SDS011;11658;48.908;9.140;2023-06-14T07:39:32;4.27;;;3.87;;
22983;SDS011;11658;48.908;9.140;2023-06-14T07:41:57;6.37;;;3.73;;
22983;SDS011;11658;48.908;9.140;2023-06-14T07:44:23;5.77;;;3.80;;
22983;SDS011;11658;48.908;9.140;2023-06-14T07:46:48;4.20;;;3.80;;
22983;SDS011;11658;48.908;9.140;2023-06-14T07:49:16;8.03;;;3.80;;
22983;SDS011;11658;48.908;9.140;2023-06-14T07:51:42;4.93;;;3.73;;
22983;SDS011;11658;48.908;9.140;2023-06-14T07:54:09;4.40;;;4.00;;
22983;SDS011;11658;48.908;9.140;2023-06-14T07:56:35;4.73;;;3.93;;
22983;SDS011;11658;48.908;9.140;2023-06-14T07:59:01;4.27;;;3.87;;
22983;SDS011;11658;48.908;9.140;2023-06-14T08:01:26;5.20;;;4.17;;
22983;SDS011;11658;48.908;9.140;2023-06-14T08:03:53;4.17;;;3.63;;
22983;SDS011;11658;48.908;9.140;2023-06-14T08:06:18;5.40;;;4.23;;
22983;SDS011;11658;48.908;9.140;2023-06-14T08:08:44;7.60;;;3.87;;
22983;SDS011;11658;48.908;9.140;2023-06-14T08:11:09;6.57;;;3.90;;
22983;SDS011;11658;48.908;9.140;2023-06-14T08:13:35;6.63;;;4.00;;
22983;SDS011;11658;48.908;9.140;2023-06-14T08:16:01;7.20;;;4.30;;
22983;SDS011;11658;48.908;9.140;2023-06-14T08:18:26;7.83;;;4.23;;
22983;SDS011;11658;48.908;9.140;2023-06-14T08:20:52;4.03;;;3.73;;
22983;SDS011;11658;48.908;9.140;2023-06-14T08:23:19;6.53;;;4.00;;
22983;SDS011;11658;48.908;9.140;2023-06-14T08:25:46;6.77;;;4.03;;
22983;SDS011;11658;48.908;9.140;2023-06-14T08:28:11;5.80;;;3.83;;
22983;SDS011;11658;48.908;9.140;2023-06-14T08:30:37;5.23;;;3.90;;
22983;SDS011;11658;48.908;9.140;2023-06-14T08:33:02;6.13;;;3.57;;
22983;SDS011;11658;48.908;9.140;2023-06-14T08:35:28;4.60;;;3.93;;
22983;SDS011;11658;48.908;9.140;2023-06-14T08:37:54;4.70;;;3.60;;
22983;SDS011;11658;48.908;9.140;2023-06-14T08:40:21;4.20;;;3.80;;
22983;SDS011;11658;48.908;9.140;2023-06-14T08:42:50;7.90;;;3.90;;
22983;SDS011;11658;48.908;9.140;2023-06-14T08:45:18;6.23;;;3.90;;
22983;SDS011;11658;48.908;9.140;2023-06-14T08:47:45;6.30;;;3.80;;
22983;SDS011;11658;48.908;9.140;2023-06-14T08:50:17;4.43;;;3.73;;
22983;SDS011;11658;48.908;9.140;2023-06-14T08:52:48;5.63;;;3.90;;
22983;SDS011;11658;48.908;9.140;2023-06-14T08:55:18;4.63;;;4.17;;
22983;SDS011;11658;48.908;9.140;2023-06-14T08:57:45;4.03;;;3.30;;
22983;SDS011;11658;48.908;9.140;2023-06-14T09:00:14;6.07;;;3.73;;
22983;SDS011;11658;48.908;9.140;2023-06-14T09:02:40;5.45;;;3.80;;
22983;SDS011;11658;48.908;9.140;2023-06-14T09:05:08;5.13;;;3.53;;
22983;SDS011;11658;48.908;9.140;2023-06-14T09:07:35;5.05;;;4.22;;
22983;SDS011;11658;48.908;9.140;2023-06-14T09:10:07;4.33;;;3.73;;
22983;SDS011;11658;48.908;9.140;2023-06-14T09:12:35;4.72;;;3.40;;
22983;SDS011;11658;48.908;9.140;2023-06-14T09:15:01;5.05;;;3.50;;
22983;SDS011;11658;48.908;9.140;2023-06-14T09:17:32;3.63;;;3.33;;
22983;SDS011;11658;48.908;9.140;2023-06-14T09:19:58;5.60;;;4.00;;
22983;SDS011;11658;48.908;9.140;2023-06-14T09:22:24;5.83;;;3.50;;
22983;SDS011;11658;48.908;9.140;2023-06-14T09:24:50;4.33;;;3.60;;
22983;SDS011;11658;48.908;9.140;2023-06-14T09:27:15;6.53;;;3.53;;
22983;SDS011;11658;48.908;9.140;2023-06-14T09:29:41;4.22;;;3.70;;
22983;SDS011;11658;48.908;9.140;2023-06-14T09:32:07;6.40;;;3.70;;
22983;SDS011;11658;48.908;9.140;2023-06-14T09:34:34;7.90;;;3.72;;
22983;SDS011;11658;48.908;9.140;2023-06-14T09:37:00;4.18;;;3.63;;
22983;SDS011;11658;48.908;9.140;2023-06-14T09:39:25;4.35;;;3.53;;
22983;SDS011;11658;48.908;9.140;2023-06-14T09:41:52;4.88;;;3.33;;
22983;SDS011;11658;48.908;9.140;2023-06-14T09:44:17;3.78;;;3.42;;
22983;SDS011;11658;48.908;9.140;2023-06-14T09:46:45;4.00;;;3.65;;
22983;SDS011;11658;48.908;9.140;2023-06-14T09:49:11;4.30;;;3.60;;
22983;SDS011;11658;48.908;9.140;2023-06-14T09:51:39;6.72;;;3.30;;
22983;SDS011;11658;48.908;9.140;2023-06-14T09:54:08;7.22;;;3.65;;
22983;SDS011;11658;48.908;9.140;2023-06-14T09:56:41;4.78;;;3.38;;
22983;SDS011;11658;48.908;9.140;2023-06-14T09:59:10;6.13;;;3.15;;
22983;SDS011;11658;48.908;9.140;2023-06-14T10:01:41;6.72;;;3.15;;
22983;SDS011;11658;48.908;9.140;2023-06-14T10:04:07;3.78;;;3.45;;
22983;SDS011;11658;48.908;9.140;2023-06-14T10:06:45;3.60;;;3.03;;
22983;SDS011;11658;48.908;9.140;2023-06-14T10:09:12;3.60;;;2.75;;
22983;SDS011;11658;48.908;9.140;2023-06-14T10:11:39;5.22;;;3.25;;
22983;SDS011;11658;48.908;9.140;2023-06-14T10:14:08;6.95;;;3.75;;
22983;SDS011;11658;48.908;9.140;2023-06-14T10:16:45;6.03;;;3.03;;
22983;SDS011;11658;48.908;9.140;2023-06-14T10:19:25;6.07;;;3.08;;
22983;SDS011;11658;48.908;9.140;2023-06-14T10:22:05;7.55;;;2.92;;
22983;SDS011;11658;48.908;9.140;2023-06-14T10:24:42;5.22;;;3.08;;
22983;SDS011;11658;48.908;9.140;2023-06-14T10:27:09;4.65;;;2.63;;
22983;SDS011;11658;48.908;9.140;2023-06-14T10:29:35;4.97;;;2.70;;
22983;SDS011;11658;48.908;9.140;2023-06-14T10:32:26;5.57;;;2.63;;
22983;SDS011;11658;48.908;9.140;2023-06-14T10:37:22;4.97;;;2.58;;
22983;SDS011;11658;48.908;9.140;2023-06-14T10:39:50;4.10;;;3.10;;
22983;SDS011;11658;48.908;9.140;2023-06-14T10:42:19;3.20;;;2.85;;
22983;SDS011;11658;48.908;9.140;2023-06-14T10:44:57;5.03;;;3.15;;
22983;SDS011;11658;48.908;9.140;2023-06-14T10:49:57;5.00;;;2.78;;
22983;SDS011;11658;48.908;9.140;2023-06-14T10:52:32;2.85;;;2.55;;
22983;SDS011;11658;48.908;9.140;2023-06-14T10:55:15;2.78;;;2.50;;
22983;SDS011;11658;48.908;9.140;2023-06-14T10:57:47;4.07;;;3.00;;
22983;SDS011;11658;48.908;9.140;2023-06-14T11:00:17;4.65;;;2.90;;
22983;SDS011;11658;48.908;9.140;2023-06-14T11:03:09;3.15;;;2.85;;
22983;SDS011;11658;48.908;9.140;2023-06-14T11:05:52;3.45;;;3.03;;
22983;SDS011;11658;48.908;9.140;2023-06-14T11:10:59;3.40;;;2.92;;
22983;SDS011;11658;48.908;9.140;2023-06-14T11:13:25;3.97;;;3.30;;
22983;SDS011;11658;48.908;9.140;2023-06-14T11:15:52;4.40;;;3.05;;
22983;SDS011;11658;48.908;9.140;2023-06-14T11:18:18;4.40;;;3.10;;
22983;SDS011;11658;48.908;9.140;2023-06-14T11:20:49;4.50;;;2.80;;
22983;SDS011;11658;48.908;9.140;2023-06-14T11:23:15;5.57;;;2.80;;
22983;SDS011;11658;48.908;9.140;2023-06-14T11:25:40;6.47;;;3.20;;
22983;SDS011;11658;48.908;9.140;2023-06-14T11:28:06;2.70;;;2.50;;
22983;SDS011;11658;48.908;9.140;2023-06-14T11:30:32;4.05;;;2.90;;
22983;SDS011;11658;48.908;9.140;2023-06-14T11:32:58;4.88;;;3.00;;
22983;SDS011;11658;48.908;9.140;2023-06-14T11:35:24;7.22;;;3.10;;
22983;SDS011;11658;48.908;9.140;2023-06-14T11:37:57;5.43;;;2.95;;
22983;SDS011;11658;48.908;9.140;2023-06-14T11:40:23;6.40;;;2.92;;
22983;SDS011;11658;48.908;9.140;2023-06-14T11:42:50;3.50;;;2.90;;
22983;SDS011;11658;48.908;9.140;2023-06-14T11:45:22;5.03;;;3.22;;
22983;SDS011;11658;48.908;9.140;2023-06-14T11:47:50;4.22;;;2.47;;
22983;SDS011;11658;48.908;9.140;2023-06-14T11:50:16;4.30;;;3.00;;
22983;SDS011;11658;48.908;9.140;2023-06-14T11:52:42;5.22;;;3.20;;
22983;SDS011;11658;48.908;9.140;2023-06-14T11:55:08;3.28;;;2.65;;
22983;SDS011;11658;48.908;9.140;2023-06-14T11:57:34;4.13;;;2.65;;
22983;SDS011;11658;48.908;9.140;2023-06-14T12:00:04;7.03;;;2.95;;
22983;SDS011;11658;48.908;9.140;2023-06-14T12:02:36;4.97;;;2.78;;
22983;SDS011;11658;48.908;9.140;2023-06-14T12:05:06;2.90;;;2.70;;
22983;SDS011;11658;48.908;9.140;2023-06-14T12:07:35;4.93;;;3.10;;
22983;SDS011;11658;48.908;9.140;2023-06-14T12:10:05;3.50;;;3.15;;
22983;SDS011;11658;48.908;9.140;2023-06-14T12:12:35;4.32;;;2.95;;
22983;SDS011;11658;48.908;9.140;2023-06-14T12:15:05;4.15;;;2.80;;
22983;SDS011;11658;48.908;9.140;2023-06-14T12:17:36;6.10;;;3.05;;
22983;SDS011;11658;48.908;9.140;2023-06-14T12:20:07;3.17;;;2.88;;
22983;SDS011;11658;48.908;9.140;2023-06-14T12:22:38;3.47;;;3.17;;
22983;SDS011;11658;48.908;9.140;2023-06-14T12:25:24;2.95;;;2.65;;
22983;SDS011;11658;48.908;9.140;2023-06-14T12:27:55;3.08;;;2.78;;
22983;SDS011;11658;48.908;9.140;2023-06-14T12:30:21;3.45;;;2.92;;
22983;SDS011;11658;48.908;9.140;2023-06-14T12:32:46;4.53;;;3.00;;
22983;SDS011;11658;48.908;9.140;2023-06-14T12:35:13;3.80;;;2.80;;
22983;SDS011;11658;48.908;9.140;2023-06-14T12:37:39;4.57;;;3.10;;
22983;SDS011;11658;48.908;9.140;2023-06-14T12:40:05;4.82;;;2.83;;
22983;SDS011;11658;48.908;9.140;2023-06-14T12:42:31;4.30;;;2.80;;
22983;SDS011;11658;48.908;9.140;2023-06-14T12:44:58;3.15;;;2.60;;
22983;SDS011;11658;48.908;9.140;2023-06-14T12:47:24;5.88;;;3.10;;
22983;SDS011;11658;48.908;9.140;2023-06-14T12:49:50;5.05;;;2.95;;
22983;SDS011;11658;48.908;9.140;2023-06-14T12:52:15;3.33;;;2.63;;
22983;SDS011;11658;48.908;9.140;2023-06-14T12:54:41;5.40;;;2.80;;
22983;SDS011;11658;48.908;9.140;2023-06-14T12:57:06;3.63;;;2.53;;
22983;SDS011;11658;48.908;9.140;2023-06-14T12:59:32;4.80;;;3.20;;
22983;SDS011;11658;48.908;9.140;2023-06-14T13:02:12;4.53;;;2.72;;
22983;SDS011;11658;48.908;9.140;2023-06-14T13:04:44;5.47;;;3.30;;
22983;SDS011;11658;48.908;9.140;2023-06-14T13:07:10;4.28;;;2.38;;
22983;SDS011;11658;48.908;9.140;2023-06-14T13:09:36;3.45;;;3.05;;
22983;SDS011;11658;48.908;9.140;2023-06-14T13:12:03;3.30;;;2.80;;
22983;SDS011;11658;48.908;9.140;2023-06-14T13:14:29;3.40;;;2.95;;
22983;SDS011;11658;48.908;9.140;2023-06-14T13:16:55;3.70;;;2.90;;
22983;SDS011;11658;48.908;9.140;2023-06-14T13:19:21;5.13;;;2.78;;
22983;SDS011;11658;48.908;9.140;2023-06-14T13:21:47;3.10;;;2.80;;
22983;SDS011;11658;48.908;9.140;2023-06-14T13:24:13;6.63;;;3.30;;
22983;SDS011;11658;48.908;9.140;2023-06-14T13:26:39;3.83;;;3.13;;
22983;SDS011;11658;48.908;9.140;2023-06-14T13:29:05;5.43;;;2.88;;
22983;SDS011;11658;48.908;9.140;2023-06-14T13:31:30;4.40;;;2.90;;
22983;SDS011;11658;48.908;9.140;2023-06-14T13:33:56;3.40;;;2.65;;
22983;SDS011;11658;48.908;9.140;2023-06-14T13:36:22;3.97;;;2.78;;
22983;SDS011;11658;48.908;9.140;2023-06-14T13:38:48;5.93;;;2.97;;
22983;SDS011;11658;48.908;9.140;2023-06-14T13:41:14;3.55;;;3.03;;
22983;SDS011;11658;48.908;9.140;2023-06-14T13:43:40;5.20;;;2.95;;
22983;SDS011;11658;48.908;9.140;2023-06-14T13:46:05;5.82;;;3.33;;
22983;SDS011;11658;48.908;9.140;2023-06-14T13:48:31;5.70;;;2.90;;
22983;SDS011;11658;48.908;9.140;2023-06-14T13:50:59;3.38;;;2.88;;
22983;SDS011;11658;48.908;9.140;2023-06-14T13:53:25;3.50;;;3.20;;
22983;SDS011;11658;48.908;9.140;2023-06-14T13:55:51;3.75;;;2.85;;
22983;SDS011;11658;48.908;9.140;2023-06-14T13:58:17;4.55;;;2.67;;
22983;SDS011;11658;48.908;9.140;2023-06-14T14:00:44;3.92;;;2.80;;
22983;SDS011;11658;48.908;9.140;2023-06-14T14:03:10;3.05;;;2.80;;
22983;SDS011;11658;48.908;9.140;2023-06-14T14:05:36;5.15;;;2.78;;
22983;SDS011;11658;48.908;9.140;2023-06-14T14:08:02;3.10;;;2.72;;
22983;SDS011;11658;48.908;9.140;2023-06-14T14:10:30;6.28;;;2.80;;
22983;SDS011;11658;48.908;9.140;2023-06-14T14:12:56;4.18;;;3.00;;
22983;SDS011;11658;48.908;9.140;2023-06-14T14:15:22;5.82;;;3.00;;
22983;SDS011;11658;48.908;9.140;2023-06-14T14:17:47;5.05;;;3.50;;
22983;SDS011;11658;48.908;9.140;2023-06-14T14:20:13;3.03;;;2.72;;
22983;SDS011;11658;48.908;9.140;2023-06-14T14:22:48;3.72;;;3.05;;
22983;SDS011;11658;48.908;9.140;2023-06-14T14:25:13;3.72;;;2.70;;
22983;SDS011;11658;48.908;9.140;2023-06-14T14:27:39;4.22;;;2.88;;
22983;SDS011;11658;48.908;9.140;2023-06-14T14:30:05;3.70;;;2.85;;
22983;SDS011;11658;48.908;9.140;2023-06-14T14:32:31;3.20;;;2.90;;
22983;SDS011;11658;48.908;9.140;2023-06-14T14:34:57;4.30;;;2.63;;
22983;SDS011;11658;48.908;9.140;2023-06-14T14:37:23;4.80;;;2.80;;
22983;SDS011;11658;48.908;9.140;2023-06-14T14:39:49;7.18;;;2.95;;
22983;SDS011;11658;48.908;9.140;2023-06-14T14:42:14;3.10;;;2.80;;
22983;SDS011;11658;48.908;9.140;2023-06-14T14:44:40;4.13;;;3.17;;
22983;SDS011;11658;48.908;9.140;2023-06-14T14:47:05;3.15;;;2.63;;
22983;SDS011;11658;48.908;9.140;2023-06-14T14:49:31;3.88;;;2.70;;
22983;SDS011;11658;48.908;9.140;2023-06-14T14:51:57;3.47;;;2.75;;
22983;SDS011;11658;48.908;9.140;2023-06-14T14:54:23;3.95;;;2.83;;
22983;SDS011;11658;48.908;9.140;2023-06-14T14:56:50;4.30;;;3.10;;
22983;SDS011;11658;48.908;9.140;2023-06-14T14:59:15;3.88;;;2.83;;
22983;SDS011;11658;48.908;9.140;2023-06-14T15:01:41;2.55;;;2.35;;
22983;SDS011;11658;48.908;9.140;2023-06-14T15:04:07;4.32;;;2.70;;
22983;SDS011;11658;48.908;9.140;2023-06-14T15:06:32;4.05;;;2.92;;
22983;SDS011;11658;48.908;9.140;2023-06-14T15:09:00;2.83;;;2.63;;
22983;SDS011;11658;48.908;9.140;2023-06-14T15:11:26;4.63;;;2.90;;
22983;SDS011;11658;48.908;9.140;2023-06-14T15:13:52;4.90;;;2.90;;
22983;SDS011;11658;48.908;9.140;2023-06-14T15:16:18;5.35;;;2.80;;
22983;SDS011;11658;48.908;9.140;2023-06-14T15:18:43;3.92;;;2.65;;
22983;SDS011;11658;48.908;9.140;2023-06-14T15:21:09;4.25;;;2.70;;
22983;SDS011;11658;48.908;9.140;2023-06-14T15:23:35;5.57;;;2.80;;
22983;SDS011;11658;48.908;9.140;2023-06-14T15:26:00;4.25;;;2.97;;
22983;SDS011;11658;48.908;9.140;2023-06-14T15:28:26;3.78;;;2.70;;
22983;SDS011;11658;48.908;9.140;2023-06-14T15:30:54;2.97;;;2.50;;
22983;SDS011;11658;48.908;9.140;2023-06-14T15:33:20;3.10;;;2.80;;
22983;SDS011;11658;48.908;9.140;2023-06-14T15:35:46;3.00;;;2.53;;
22983;SDS011;11658;48.908;9.140;2023-06-14T15:38:11;3.08;;;2.65;;
22983;SDS011;11658;48.908;9.140;2023-06-14T15:40:37;4.30;;;2.92;;
22983;SDS011;11658;48.908;9.140;2023-06-14T15:43:03;3.97;;;2.85;;
22983;SDS011;11658;48.908;9.140;2023-06-14T15:45:28;3.85;;;2.78;;
22983;SDS011;11658;48.908;9.140;2023-06-14T15:47:54;3.25;;;2.72;;
22983;SDS011;11658;48.908;9.140;2023-06-14T15:50:20;4.43;;;2.78;;
22983;SDS011;11658;48.908;9.140;2023-06-14T15:52:46;3.15;;;2.55;;
22983;SDS011;11658;48.908;9.140;2023-06-14T15:55:12;2.72;;;2.47;;
22983;SDS011;11658;48.908;9.140;2023-06-14T15:57:38;4.80;;;2.78;;
22983;SDS011;11658;48.908;9.140;2023-06-14T16:00:03;5.40;;;2.83;;
22983;SDS011;11658;48.908;9.140;2023-06-14T16:02:29;2.90;;;2.60;;
22983;SDS011;11658;48.908;9.140;2023-06-14T16:04:55;4.18;;;2.60;;
22983;SDS011;11658;48.908;9.140;2023-06-14T16:07:20;3.55;;;2.78;;
22983;SDS011;11658;48.908;9.140;2023-06-14T16:09:46;3.20;;;2.85;;
22983;SDS011;11658;48.908;9.140;2023-06-14T16:12:12;2.80;;;2.50;;
22983;SDS011;11658;48.908;9.140;2023-06-14T16:14:41;3.17;;;2.63;;
22983;SDS011;11658;48.908;9.140;2023-06-14T16:17:06;4.75;;;2.80;;
22983;SDS011;11658;48.908;9.140;2023-06-14T16:19:32;4.32;;;3.00;;
22983;SDS011;11658;48.908;9.140;2023-06-14T16:21:58;3.45;;;3.05;;
22983;SDS011;11658;48.908;9.140;2023-06-14T16:24:24;12.48;;;3.28;;
22983;SDS011;11658;48.908;9.140;2023-06-14T16:26:50;6.05;;;3.05;;
22983;SDS011;11658;48.908;9.140;2023-06-14T16:29:19;4.22;;;2.70;;
22983;SDS011;11658;48.908;9.140;2023-06-14T16:31:47;5.68;;;3.10;;
22983;SDS011;11658;48.908;9.140;2023-06-14T16:34:12;3.50;;;2.78;;
22983;SDS011;11658;48.908;9.140;2023-06-14T16:36:40;4.95;;;2.85;;
22983;SDS011;11658;48.908;9.140;2023-06-14T16:39:06;3.70;;;3.20;;
22983;SDS011;11658;48.908;9.140;2023-06-14T16:41:32;4.60;;;2.88;;
22983;SDS011;11658;48.908;9.140;2023-06-14T16:43:58;3.78;;;2.60;;
22983;SDS011;11658;48.908;9.140;2023-06-14T16:46:29;4.05;;;2.33;;
22983;SDS011;11658;48.908;9.140;2023-06-14T16:48:56;4.60;;;3.13;;
22983;SDS011;11658;48.908;9.140;2023-06-14T16:51:22;3.80;;;2.50;;
22983;SDS011;11658;48.908;9.140;2023-06-14T16:53:49;3.28;;;2.35;;
22983;SDS011;11658;48.908;9.140;2023-06-14T16:56:15;3.05;;;2.60;;
22983;SDS011;11658;48.908;9.140;2023-06-14T16:58:41;3.38;;;2.60;;
22983;SDS011;11658;48.908;9.140;2023-06-14T17:01:06;4.15;;;2.67;;
22983;SDS011;11658;48.908;9.140;2023-06-14T17:03:32;2.97;;;2.53;;
22983;SDS011;11658;48.908;9.140;2023-06-14T17:05:59;5.63;;;2.40;;
22983;SDS011;11658;48.908;9.140;2023-06-14T17:08:24;2.70;;;2.50;;
22983;SDS011;11658;48.908;9.140;2023-06-14T17:10:53;2.85;;;2.50;;
22983;SDS011;11658;48.908;9.140;2023-06-14T17:13:20;3.08;;;2.78;;
22983;SDS011;11658;48.908;9.140;2023-06-14T17:15:46;3.08;;;2.60;;
22983;SDS011;11658;48.908;9.140;2023-06-14T17:18:12;3.65;;;2.70;;
22983;SDS011;11658;48.908;9.140;2023-06-14T17:20:37;3.65;;;2.63;;
22983;SDS011;11658;48.908;9.140;2023-06-14T17:23:03;3.65;;;2.67;;
22983;SDS011;11658;48.908;9.140;2023-06-14T17:25:28;5.38;;;2.70;;
22983;SDS011;11658;48.908;9.140;2023-06-14T17:27:54;6.43;;;2.80;;
22983;SDS011;11658;48.908;9.140;2023-06-14T17:30:20;5.18;;;2.85;;
22983;SDS011;11658;48.908;9.140;2023-06-14T17:32:46;2.97;;;2.55;;
22983;SDS011;11658;48.908;9.140;2023-06-14T17:35:11;4.10;;;2.60;;
22983;SDS011;11658;48.908;9.140;2023-06-14T17:37:40;3.63;;;2.90;;
22983;SDS011;11658;48.908;9.140;2023-06-14T17:40:06;4.18;;;2.50;;
22983;SDS011;11658;48.908;9.140;2023-06-14T17:42:32;3.15;;;2.85;;
22983;SDS011;11658;48.908;9.140;2023-06-14T17:44:58;5.93;;;3.13;;
22983;SDS011;11658;48.908;9.140;2023-06-14T17:47:23;2.90;;;2.45;;
22983;SDS011;11658;48.908;9.140;2023-06-14T17:49:50;5.07;;;3.00;;
22983;SDS011;11658;48.908;9.140;2023-06-14T17:52:16;4.32;;;2.78;;
22983;SDS011;11658;48.908;9.140;2023-06-14T17:54:41;3.63;;;2.63;;
22983;SDS011;11658;48.908;9.140;2023-06-14T17:57:07;5.22;;;2.58;;
22983;SDS011;11658;48.908;9.140;2023-06-14T17:59:33;2.88;;;2.63;;
22983;SDS011;11658;48.908;9.140;2023-06-14T18:01:58;5.88;;;2.95;;
22983;SDS011;11658;48.908;9.140;2023-06-14T18:04:25;4.03;;;3.40;;
22983;SDS011;11658;48.908;9.140;2023-06-14T18:06:52;5.63;;;2.92;;
22983;SDS011;11658;48.908;9.140;2023-06-14T18:09:17;3.78;;;2.97;;
22983;SDS011;11658;48.908;9.140;2023-06-14T18:11:43;5.78;;;2.90;;
22983;SDS011;11658;48.908;9.140;2023-06-14T18:14:09;3.25;;;2.95;;
22983;SDS011;11658;48.908;9.140;2023-06-14T18:16:34;5.47;;;3.05;;
22983;SDS011;11658;48.908;9.140;2023-06-14T18:19:00;4.43;;;2.90;;
22983;SDS011;11658;48.908;9.140;2023-06-14T18:21:25;4.80;;;3.28;;
22983;SDS011;11658;48.908;9.140;2023-06-14T18:23:51;4.00;;;3.13;;
22983;SDS011;11658;48.908;9.140;2023-06-14T18:26:18;4.68;;;3.00;;
22983;SDS011;11658;48.908;9.140;2023-06-14T18:28:48;6.05;;;3.15;;
22983;SDS011;11658;48.908;9.140;2023-06-14T18:31:14;4.78;;;3.40;;
22983;SDS011;11658;48.908;9.140;2023-06-14T18:33:41;3.22;;;2.97;;
22983;SDS011;11658;48.908;9.140;2023-06-14T18:36:06;5.45;;;3.10;;
22983;SDS011;11658;48.908;9.140;2023-06-14T18:38:32;7.18;;;3.10;;
22983;SDS011;11658;48.908;9.140;2023-06-14T18:40:58;4.78;;;3.28;;
22983;SDS011;11658;48.908;9.140;2023-06-14T18:43:23;3.33;;;3.03;;
22983;SDS011;11658;48.908;9.140;2023-06-14T18:45:49;4.53;;;2.85;;
22983;SDS011;11658;48.908;9.140;2023-06-14T18:48:14;3.92;;;3.50;;
22983;SDS011;11658;48.908;9.140;2023-06-14T18:50:40;4.87;;;3.10;;
22983;SDS011;11658;48.908;9.140;2023-06-14T18:53:05;6.20;;;3.20;;
22983;SDS011;11658;48.908;9.140;2023-06-14T18:55:31;6.63;;;3.08;;